Terminal Aerodrome Forecast
Issued by NWS Cleveland, OH

Home | Current Version | Previous Version | Text Only | Print | Product List | Glossary Off
Versions: 1 2 3 4 5 6 7 8 9 10 11 12 13 14 15 16 17 18 19 20 21 22 23 24 25 26 27 28 29 30 31 32 33 34 35 36 37 38

000
FTUS41 KCLE 011500 AAA
TAFCLE
TAF AMD
KCLE 011506Z 0115/0218 21004KT 3/4SM -SN BR OVC018
      TEMPO 0117/0120 2SM -SN BKN025 OVC030
     FM012000 24005KT 2SM -SN OVC025
     FM012200 27005KT 3SM -SN OVC020
     FM020200 27007KT 6SM -SN OVC025
     FM020800 26011KT P6SM OVC080=

USA.gov is the U.S. government's official web portal to all federal, state and local government web resources and services.